Time;durP1;ratioP1;P1;durP2;ratioP2;P2;SDS_P1;SDS_P2;PMS_P1;PMS_P2;Temp;Humidity;BMP_temperature;BMP_pressure;BME280_temperature;BME280_humidity;BME280_pressure;Samples;Min_cycle;Max_cycle;Signal;HPM_P1;HPM_P2
2022/10/29 00:00:18;;;;;;;;;;;;;;;10.66;100.00;98646.03;7388189;19;19915;-56
2022/10/29 00:02:53;;;;;;;;;;;;;;;10.71;100.00;98651.88;7388469;19;19978;-57
2022/10/29 00:05:26;;;;;;;;;;;;;;;10.59;100.00;98650.75;7385275;19;19943;-51
2022/10/29 00:07:58;;;;;;;;;;;;;;;10.52;100.00;98651.19;7386969;19;19915;-54
2022/10/29 00:10:32;;;;;;;;;;;;;;;10.34;100.00;98646.88;7391798;19;19926;-57
2022/10/29 00:13:23;;;;;;;;;;;;;;;10.50;100.00;98646.00;7391799;19;20340;-56
2022/10/29 00:15:55;;;;;;;;;;;;;;;10.36;100.00;98645.88;7389727;19;19915;-50
2022/10/29 00:18:31;;;;;;;;;;;;;;;10.46;100.00;98646.22;7386313;19;20328;-54
2022/10/29 00:21:07;;;;;;;;;;;;;;;10.51;100.00;98645.06;7392517;19;19918;-57
2022/10/29 00:23:39;;;;;;;;;;;;;;;10.65;100.00;98639.91;7383271;19;19923;-54
2022/10/29 00:26:12;;;;;;;;;;;;;;;10.63;100.00;98639.13;7389205;19;19918;-53
2022/10/29 00:28:45;;;;;;;;;;;;;;;10.53;100.00;98642.34;7389348;19;19918;-54
2022/10/29 00:31:36;;;;;;;;;;;;;;;10.41;100.00;98640.38;7389948;19;20263;-56
2022/10/29 00:34:30;;;;;;;;;;;;;;;10.39;100.00;98632.56;7385086;19;20361;-54
2022/10/29 00:37:03;;;;;;;;;;;;;;;10.47;100.00;98626.88;7388014;19;19947;-54
2022/10/29 00:39:36;;;;;;;;;;;;;;;10.63;100.00;98638.31;7385660;19;19951;-58
2022/10/29 00:42:09;;;;;;;;;;;;;;;10.59;100.00;98618.38;7387426;19;19923;-53
2022/10/29 00:44:42;;;;;;;;;;;;;;;10.54;100.00;98625.63;7389881;19;19937;-54
2022/10/29 00:47:23;;;;;;;;;;;;;;;10.44;100.00;98609.50;7384465;19;19911;-51
2022/10/29 00:50:00;;;;;;;;;;;;;;;10.68;100.00;98612.59;7388656;19;20238;-55
2022/10/29 00:52:35;;;;;;;;;;;;;;;10.54;100.00;98630.88;7383752;19;19915;-53
2022/10/29 00:55:10;;;;;;;;;;;;;;;10.66;100.00;98617.94;7389386;19;19915;-56
2022/10/29 00:57:47;;;;;;;;;;;;;;;10.47;100.00;98619.84;7385622;19;20243;-58
2022/10/29 01:00:20;;;;;;;;;;;;;;;10.46;100.00;98622.56;7383751;19;19982;-58
2022/10/29 01:02:53;;;;;;;;;;;;;;;10.36;100.00;98621.38;7389163;19;19926;-52
2022/10/29 01:05:47;;;;;;;;;;;;;;;10.37;100.00;98626.53;7388844;19;19922;-50
2022/10/29 01:08:20;;;;;;;;;;;;;;;10.51;100.00;98623.19;7388269;19;19939;-57
2022/10/29 01:11:01;;;;;;;;;;;;;;;10.48;100.00;98618.09;7387194;19;19915;-56
2022/10/29 01:14:08;;;;;;;;;;;;;;;10.41;100.00;98614.94;7384069;19;19914;-57
2022/10/29 01:16:46;;;;;;;;;;;;;;;10.54;100.00;98599.34;7388022;19;19986;-57
2022/10/29 01:19:21;;;;;;;;;;;;;;;10.62;100.00;98603.25;7384761;19;19915;-56
2022/10/29 01:22:02;;;;;;;;;;;;;;;10.50;100.00;98603.94;7389486;19;19907;-57
2022/10/29 01:25:11;;;;;;;;;;;;;;;10.50;100.00;98611.81;7387604;19;20334;-55
2022/10/29 01:27:57;;;;;;;;;;;;;;;10.28;100.00;98611.25;7382922;19;19919;-56
2022/10/29 01:30:42;;;;;;;;;;;;;;;10.16;100.00;98617.16;7389690;19;19931;-56
2022/10/29 01:33:41;;;;;;;;;;;;;;;10.39;100.00;98614.16;7385420;19;20004;-57
2022/10/29 01:36:18;;;;;;;;;;;;;;;10.19;100.00;98614.38;7385055;19;19922;-51
2022/10/29 01:39:14;;;;;;;;;;;;;;;10.51;100.00;98610.03;7388133;19;19921;-55
2022/10/29 01:41:56;;;;;;;;;;;;;;;10.39;100.00;98618.56;7381864;19;19919;-53
2022/10/29 01:44:51;;;;;;;;;;;;;;;10.35;100.00;98620.50;7383496;19;19930;-58
2022/10/29 01:47:25;;;;;;;;;;;;;;;10.14;100.00;98611.13;7387112;19;19968;-57
2022/10/29 01:50:20;;;;;;;;;;;;;;;10.55;100.00;98612.41;7383809;19;19922;-53
2022/10/29 01:52:57;;;;;;;;;;;;;;;10.06;100.00;98612.44;7385289;19;19910;-57
2022/10/29 01:55:34;;;;;;;;;;;;;;;10.26;100.00;98612.25;7383027;19;19918;-58
2022/10/29 01:58:07;;;;;;;;;;;;;;;10.38;100.00;98614.25;7385707;19;20407;-56
2022/10/29 02:00:47;;;;;;;;;;;;;;;10.25;100.00;98616.66;7387651;19;19935;-54
2022/10/29 02:03:24;;;;;;;;;;;;;;;10.30;100.00;98596.25;7388763;19;20252;-56
2022/10/29 02:06:05;;;;;;;;;;;;;;;10.04;100.00;98607.25;7384158;19;20496;-58
2022/10/29 02:08:43;;;;;;;;;;;;;;;10.20;100.00;98605.56;7386675;19;19914;-56
2022/10/29 02:11:20;;;;;;;;;;;;;;;10.14;100.00;98605.84;7386678;19;19915;-57
2022/10/29 02:13:55;;;;;;;;;;;;;;;10.25;100.00;98600.06;7382832;19;19925;-56
2022/10/29 02:16:30;;;;;;;;;;;;;;;10.31;100.00;98599.72;7387887;19;20350;-53
2022/10/29 02:19:02;;;;;;;;;;;;;;;10.23;100.00;98592.25;7381448;19;19922;-57
2022/10/29 02:21:39;;;;;;;;;;;;;;;10.18;100.00;98596.06;7388011;19;19911;-52
2022/10/29 02:24:14;;;;;;;;;;;;;;;10.34;100.00;98595.16;7386119;19;19933;-56
2022/10/29 02:26:47;;;;;;;;;;;;;;;10.17;100.00;98605.72;7386273;19;19907;-57
2022/10/29 02:29:19;;;;;;;;;;;;;;;9.96;100.00;98605.97;7387454;19;19918;-56
2022/10/29 02:31:52;;;;;;;;;;;;;;;10.30;100.00;98604.16;7382030;19;20452;-58
2022/10/29 02:34:44;;;;;;;;;;;;;;;10.22;100.00;98616.00;7387135;19;19949;-55
2022/10/29 02:37:19;;;;;;;;;;;;;;;10.27;100.00;98606.06;7381892;19;19915;-57
2022/10/29 02:40:11;;;;;;;;;;;;;;;10.28;100.00;98597.25;7387309;19;19964;-56
2022/10/29 02:43:02;;;;;;;;;;;;;;;10.26;100.00;98596.50;7388241;19;20424;-55
2022/10/29 02:45:35;;;;;;;;;;;;;;;10.14;100.00;98597.16;7386141;19;20327;-55
2022/10/29 02:48:07;;;;;;;;;;;;;;;10.06;100.00;98592.28;7382972;19;20458;-57
2022/10/29 02:50:41;;;;;;;;;;;;;;;10.06;100.00;98594.03;7385781;19;19922;-53
2022/10/29 02:53:34;;;;;;;;;;;;;;;10.17;100.00;98584.69;7387151;19;19956;-53
2022/10/29 02:56:25;;;;;;;;;;;;;;;10.12;100.00;98572.72;7384514;19;19952;-58
2022/10/29 02:58:58;;;;;;;;;;;;;;;10.31;100.00;98579.56;7385654;19;19919;-54
2022/10/29 03:01:49;;;;;;;;;;;;;;;10.01;100.00;98578.53;7381904;19;19929;-56
2022/10/29 03:04:22;;;;;;;;;;;;;;;10.30;100.00;98575.22;7386366;19;19945;-54
2022/10/29 03:06:54;;;;;;;;;;;;;;;10.20;100.00;98567.91;7389641;19;20270;-52
2022/10/29 03:09:30;;;;;;;;;;;;;;;10.17;100.00;98574.16;7389404;19;20311;-56
2022/10/29 03:12:03;;;;;;;;;;;;;;;10.11;100.00;98581.53;7391866;19;20302;-57
2022/10/29 03:14:35;;;;;;;;;;;;;;;10.27;100.00;98583.28;7387492;19;19914;-53
2022/10/29 03:17:08;;;;;;;;;;;;;;;10.31;100.00;98581.31;7392182;19;19911;-51
2022/10/29 03:19:41;;;;;;;;;;;;;;;10.25;100.00;98581.66;7392818;19;20323;-57
2022/10/29 03:22:32;;;;;;;;;;;;;;;10.21;100.00;98574.84;7392215;19;19926;-57
2022/10/29 03:25:26;;;;;;;;;;;;;;;10.09;100.00;98571.09;7387912;19;19930;-54
2022/10/29 03:27:59;;;;;;;;;;;;;;;10.03;100.00;98579.28;7393111;19;20225;-56
2022/10/29 03:30:32;;;;;;;;;;;;;;;10.14;100.00;98584.00;7392580;19;20304;-53
2022/10/29 03:33:05;;;;;;;;;;;;;;;10.10;100.00;98593.81;7390669;19;20433;-56
2022/10/29 03:35:38;;;;;;;;;;;;;;;10.05;100.00;98590.59;7392662;19;19919;-57
2022/10/29 03:38:29;;;;;;;;;;;;;;;10.00;100.00;98597.00;7393780;19;20357;-55
2022/10/29 03:41:09;;;;;;;;;;;;;;;9.96;100.00;98600.72;7391938;19;19930;-57
2022/10/29 03:43:41;;;;;;;;;;;;;;;9.87;100.00;98604.66;7387539;19;19991;-55
2022/10/29 03:46:14;;;;;;;;;;;;;;;9.99;100.00;98598.78;7390394;19;19919;-54
2022/10/29 03:49:05;;;;;;;;;;;;;;;10.09;100.00;98612.28;7390313;19;20371;-58
2022/10/29 03:51:38;;;;;;;;;;;;;;;9.88;100.00;98606.34;7391752;19;19919;-55
2022/10/29 03:54:11;;;;;;;;;;;;;;;10.17;100.00;98599.59;7388160;19;19918;-59
2022/10/29 03:56:47;;;;;;;;;;;;;;;10.16;100.00;98600.53;7392844;19;19911;-57
2022/10/29 03:59:19;;;;;;;;;;;;;;;10.20;100.00;98588.91;7391452;19;19943;-55
2022/10/29 04:01:52;;;;;;;;;;;;;;;10.35;100.00;98593.38;7386055;19;19911;-57
2022/10/29 04:04:25;;;;;;;;;;;;;;;10.14;100.00;98591.88;7392223;19;19937;-50
2022/10/29 04:06:58;;;;;;;;;;;;;;;10.02;100.00;98582.84;7387263;19;19968;-59
2022/10/29 04:09:30;;;;;;;;;;;;;;;10.09;100.00;98583.38;7388225;19;19960;-56
2022/10/29 04:12:24;;;;;;;;;;;;;;;9.85;100.00;98588.13;7386991;19;19925;-58
2022/10/29 04:15:15;;;;;;;;;;;;;;;10.31;100.00;98576.91;7384627;19;20036;-50
2022/10/29 04:17:48;;;;;;;;;;;;;;;10.12;100.00;98575.34;7384475;19;19933;-52
2022/10/29 04:20:40;;;;;;;;;;;;;;;10.17;100.00;98579.44;7389895;19;19929;-57
2022/10/29 04:23:13;;;;;;;;;;;;;;;10.13;100.00;98585.78;7384230;19;19927;-55
2022/10/29 04:25:46;;;;;;;;;;;;;;;10.12;100.00;98588.47;7390778;19;19919;-58
2022/10/29 04:28:21;;;;;;;;;;;;;;;10.17;100.00;98568.91;7389324;19;19919;-58
2022/10/29 04:30:54;;;;;;;;;;;;;;;10.10;100.00;98574.56;7390228;19;19922;-53
2022/10/29 04:33:27;;;;;;;;;;;;;;;10.24;100.00;98572.91;7389711;19;19923;-52
2022/10/29 04:36:00;;;;;;;;;;;;;;;10.16;100.00;98561.97;7382016;19;20375;-57
2022/10/29 04:38:32;;;;;;;;;;;;;;;10.21;100.00;98574.84;7388737;19;19910;-56
2022/10/29 04:41:06;;;;;;;;;;;;;;;10.28;100.00;98577.06;7389699;19;19918;-55
2022/10/29 04:43:43;;;;;;;;;;;;;;;10.19;100.00;98561.81;7387159;19;19919;-56
2022/10/29 04:46:17;;;;;;;;;;;;;;;10.10;100.00;98556.16;7385924;19;19926;-50
2022/10/29 04:48:49;;;;;;;;;;;;;;;10.23;100.00;98558.09;7381948;19;19915;-57
2022/10/29 04:51:40;;;;;;;;;;;;;;;10.11;100.00;98557.88;7386718;19;19922;-57
2022/10/29 04:54:32;;;;;;;;;;;;;;;10.02;100.00;98563.59;7389778;19;19952;-57
2022/10/29 04:57:05;;;;;;;;;;;;;;;9.95;100.00;98547.31;7388436;19;19919;-57
2022/10/29 04:59:40;;;;;;;;;;;;;;;10.02;100.00;98558.34;7385638;19;19919;-53
2022/10/29 05:02:15;;;;;;;;;;;;;;;10.32;100.00;98567.22;7389215;19;19921;-53
2022/10/29 05:04:48;;;;;;;;;;;;;;;10.10;100.00;98567.53;7383354;19;19939;-57
2022/10/29 05:07:21;;;;;;;;;;;;;;;10.22;100.00;98566.88;7390103;19;20222;-57
2022/10/29 05:09:53;;;;;;;;;;;;;;;10.19;100.00;98572.31;7385136;19;21251;-53
2022/10/29 05:12:26;;;;;;;;;;;;;;;10.26;100.00;98580.72;7383357;19;19922;-54
2022/10/29 05:15:02;;;;;;;;;;;;;;;10.09;100.00;98592.13;7387015;19;19949;-52
2022/10/29 05:17:35;;;;;;;;;;;;;;;10.08;100.00;98594.81;7385253;19;19915;-58
2022/10/29 05:20:07;;;;;;;;;;;;;;;10.21;100.00;98585.34;7387960;19;20327;-57
2022/10/29 05:22:40;;;;;;;;;;;;;;;10.11;100.00;98586.78;7385172;19;20020;-49
2022/10/29 05:25:13;;;;;;;;;;;;;;;9.85;100.00;98598.63;7381884;19;20255;-57
2022/10/29 05:27:46;;;;;;;;;;;;;;;10.25;100.00;98592.19;7386023;19;20264;-51
2022/10/29 05:30:21;;;;;;;;;;;;;;;9.86;100.00;98579.34;7387580;19;19919;-58
2022/10/29 05:32:54;;;;;;;;;;;;;;;9.84;100.00;98585.56;7386147;19;20444;-52
2022/10/29 05:35:27;;;;;;;;;;;;;;;9.97;100.00;98584.03;7385589;19;19922;-50
2022/10/29 05:38:00;;;;;;;;;;;;;;;9.86;100.00;98587.22;7380666;19;19915;-49
2022/10/29 05:40:33;;;;;;;;;;;;;;;9.86;100.00;98579.34;7386570;19;20308;-48
2022/10/29 05:43:05;;;;;;;;;;;;;;;10.28;100.00;98584.97;7389276;19;19944;-56
2022/10/29 05:45:41;;;;;;;;;;;;;;;10.11;100.00;98573.66;7386985;19;19918;-54
2022/10/29 05:48:15;;;;;;;;;;;;;;;10.15;100.00;98583.91;7382119;19;19918;-55
2022/10/29 05:50:48;;;;;;;;;;;;;;;10.16;100.00;98604.03;7379114;19;19947;-51
2022/10/29 05:53:20;;;;;;;;;;;;;;;10.33;100.00;98600.50;7384817;19;19915;-48
2022/10/29 05:55:53;;;;;;;;;;;;;;;10.04;100.00;98601.16;7380436;19;19933;-50
2022/10/29 05:58:26;;;;;;;;;;;;;;;10.05;100.00;98611.59;7380635;19;20449;-53
2022/10/29 06:01:04;;;;;;;;;;;;;;;10.10;100.00;98608.72;7385163;19;19918;-59
2022/10/29 06:03:36;;;;;;;;;;;;;;;10.25;100.00;98602.69;7379071;19;20407;-52
2022/10/29 06:06:09;;;;;;;;;;;;;;;10.24;100.00;98603.59;7383513;19;19938;-57
2022/10/29 06:08:42;;;;;;;;;;;;;;;10.34;100.00;98612.72;7382984;19;19919;-55
2022/10/29 06:11:15;;;;;;;;;;;;;;;10.37;100.00;98613.38;7375755;19;19903;-57
2022/10/29 06:13:48;;;;;;;;;;;;;;;10.22;100.00;98608.94;7383568;19;19975;-52
2022/10/29 06:16:23;;;;;;;;;;;;;;;10.29;100.00;98617.38;7379767;19;19962;-60
2022/10/29 06:18:56;;;;;;;;;;;;;;;10.41;100.00;98608.81;7382707;19;19936;-50
2022/10/29 06:21:29;;;;;;;;;;;;;;;10.14;100.00;98623.44;7384231;19;19911;-53
2022/10/29 06:24:02;;;;;;;;;;;;;;;10.08;100.00;98621.09;7377753;19;19923;-52
2022/10/29 06:26:36;;;;;;;;;;;;;;;10.18;100.00;98630.22;7381626;19;19915;-59
2022/10/29 06:29:09;;;;;;;;;;;;;;;10.34;100.00;98625.84;7381312;19;19939;-56
2022/10/29 06:31:44;;;;;;;;;;;;;;;10.05;100.00;98637.03;7381513;19;19922;-51
2022/10/29 06:34:17;;;;;;;;;;;;;;;9.97;100.00;98637.44;7383142;19;19923;-52
2022/10/29 06:36:50;;;;;;;;;;;;;;;10.33;100.00;98632.88;7378207;19;20356;-55
2022/10/29 06:39:22;;;;;;;;;;;;;;;10.18;100.00;98635.47;7386324;19;19914;-58
2022/10/29 06:41:55;;;;;;;;;;;;;;;10.26;100.00;98638.56;7393129;19;19915;-52
2022/10/29 06:44:28;;;;;;;;;;;;;;;10.20;100.00;98638.84;7389333;19;19946;-58
2022/10/29 06:47:03;;;;;;;;;;;;;;;10.46;100.00;98635.72;7390506;19;20250;-56
2022/10/29 06:49:36;;;;;;;;;;;;;;;10.09;100.00;98644.69;7386847;19;20683;-51
2022/10/29 06:52:09;;;;;;;;;;;;;;;10.04;100.00;98645.84;7392860;19;19919;-59
2022/10/29 06:54:42;;;;;;;;;;;;;;;10.35;100.00;98652.06;7393747;19;19929;-57
2022/10/29 06:57:15;;;;;;;;;;;;;;;10.30;100.00;98653.22;7390542;19;20404;-50
2022/10/29 06:59:47;;;;;;;;;;;;;;;10.21;100.00;98654.56;7394349;19;19923;-58
2022/10/29 07:02:24;;;;;;;;;;;;;;;10.21;100.00;98664.19;7390203;19;19937;-59
2022/10/29 07:04:57;;;;;;;;;;;;;;;10.27;100.00;98661.28;7389833;19;19944;-49
2022/10/29 07:07:29;;;;;;;;;;;;;;;10.23;100.00;98668.47;7394525;19;19919;-51
2022/10/29 07:10:02;;;;;;;;;;;;;;;10.59;100.00;98661.28;7387781;19;19911;-50
2022/10/29 07:12:35;;;;;;;;;;;;;;;10.22;100.00;98672.00;7387780;19;19926;-53
2022/10/29 07:15:08;;;;;;;;;;;;;;;10.61;100.00;98659.44;7390213;19;19927;-51
2022/10/29 07:17:44;;;;;;;;;;;;;;;10.86;100.00;98664.22;7393223;19;19914;-50
2022/10/29 07:20:16;;;;;;;;;;;;;;;10.75;100.00;98671.84;7394320;19;19919;-48
2022/10/29 07:22:52;;;;;;;;;;;;;;;10.90;100.00;98668.38;7386825;19;20248;-49
2022/10/29 07:25:25;;;;;;;;;;;;;;;10.99;100.00;98663.50;7391117;19;19911;-59
2022/10/29 07:27:58;;;;;;;;;;;;;;;11.14;100.00;98672.34;7391174;19;20334;-53
2022/10/29 07:30:30;;;;;;;;;;;;;;;10.84;100.00;98679.25;7391181;19;19922;-52
2022/10/29 07:33:07;;;;;;;;;;;;;;;11.10;100.00;98661.13;7392123;19;19915;-49
2022/10/29 07:35:40;;;;;;;;;;;;;;;11.05;100.00;98670.22;7389059;19;19923;-48
2022/10/29 07:38:14;;;;;;;;;;;;;;;10.96;100.00;98670.69;7392554;19;19919;-54
2022/10/29 07:40:52;;;;;;;;;;;;;;;10.96;100.00;98675.94;7391081;19;19936;-59
2022/10/29 07:43:26;;;;;;;;;;;;;;;11.04;100.00;98685.16;7393294;19;19918;-50
2022/10/29 07:45:58;;;;;;;;;;;;;;;11.59;100.00;98673.25;7391730;19;19922;-51
2022/10/29 07:48:34;;;;;;;;;;;;;;;11.58;100.00;98674.19;7389337;19;19935;-54
2022/10/29 07:51:07;;;;;;;;;;;;;;;11.41;100.00;98678.72;7387922;19;19948;-53
2022/10/29 07:53:40;;;;;;;;;;;;;;;11.84;100.00;98677.97;7386208;19;19947;-58
2022/10/29 07:56:13;;;;;;;;;;;;;;;11.50;100.00;98672.91;7391817;19;20333;-52
2022/10/29 07:58:45;;;;;;;;;;;;;;;11.90;100.00;98679.41;7392763;19;19915;-54
2022/10/29 08:01:18;;;;;;;;;;;;;;;11.84;100.00;98687.66;7385917;19;19978;-50
2022/10/29 08:03:55;;;;;;;;;;;;;;;12.25;100.00;98683.47;7390387;19;19914;-52
2022/10/29 08:06:27;;;;;;;;;;;;;;;12.36;100.00;98671.34;7383940;19;19926;-60
2022/10/29 08:09:00;;;;;;;;;;;;;;;12.52;100.00;98671.28;7391978;19;19978;-52
2022/10/29 08:11:33;;;;;;;;;;;;;;;12.67;100.00;98663.28;7392328;19;19915;-53
2022/10/29 08:14:06;;;;;;;;;;;;;;;12.50;100.00;98658.19;7387028;19;19929;-50
2022/10/29 08:16:39;;;;;;;;;;;;;;;12.76;100.00;98652.16;7388496;19;19922;-52
2022/10/29 08:19:14;;;;;;;;;;;;;;;12.83;100.00;98656.13;7389251;19;20244;-53
2022/10/29 08:21:47;;;;;;;;;;;;;;;12.75;100.00;98654.91;7391040;19;20302;-48
2022/10/29 08:24:20;;;;;;;;;;;;;;;12.87;100.00;98648.84;7389473;19;19929;-51
2022/10/29 08:26:53;;;;;;;;;;;;;;;13.07;100.00;98651.06;7383492;19;19939;-53
2022/10/29 08:29:26;;;;;;;;;;;;;;;13.26;100.00;98641.88;7389462;19;19929;-58
2022/10/29 08:31:58;;;;;;;;;;;;;;;13.07;100.00;98644.00;7389921;19;19918;-51
2022/10/29 08:34:34;;;;;;;;;;;;;;;13.44;100.00;98643.38;7388577;19;19996;-49
2022/10/29 08:37:07;;;;;;;;;;;;;;;13.31;100.00;98639.81;7390884;19;20307;-53
2022/10/29 08:39:40;;;;;;;;;;;;;;;13.42;100.00;98650.56;7385534;19;19943;-55
2022/10/29 08:42:16;;;;;;;;;;;;;;;13.62;100.00;98646.59;7388478;19;20331;-55
2022/10/29 08:45:03;;;;;;;;;;;;;;;13.61;100.00;98645.78;7390232;19;19991;-51
2022/10/29 08:47:37;;;;;;;;;;;;;;;13.74;100.00;98641.38;7389693;19;20338;-52
2022/10/29 08:50:20;;;;;;;;;;;;;;;13.65;100.00;98649.06;7389309;19;19938;-50
2022/10/29 08:52:53;;;;;;;;;;;;;;;13.77;100.00;98651.75;7385802;19;19918;-54
2022/10/29 08:55:28;;;;;;;;;;;;;;;13.74;100.00;98651.13;7391995;19;19911;-53
2022/10/29 08:58:02;;;;;;;;;;;;;;;13.75;100.00;98661.59;7385637;19;20342;-54
2022/10/29 09:00:37;;;;;;;;;;;;;;;14.18;100.00;98649.00;7389800;19;19911;-52
2022/10/29 09:03:14;;;;;;;;;;;;;;;14.11;100.00;98645.91;7384234;19;19918;-56
2022/10/29 09:05:56;;;;;;;;;;;;;;;14.17;100.00;98642.00;7386973;19;19998;-55
2022/10/29 09:08:36;;;;;;;;;;;;;;;14.11;100.00;98643.25;7385795;19;19929;-60
2022/10/29 09:11:14;;;;;;;;;;;;;;;14.25;100.00;98632.59;7385660;19;19915;-54
2022/10/29 09:13:51;;;;;;;;;;;;;;;14.41;100.00;98638.53;7388297;19;19946;-52
2022/10/29 09:16:33;;;;;;;;;;;;;;;14.03;100.00;98640.28;7388499;19;19911;-49
2022/10/29 09:19:24;;;;;;;;;;;;;;;14.06;100.00;98642.72;7386797;19;19943;-53
2022/10/29 09:22:03;;;;;;;;;;;;;;;14.05;100.00;98641.03;7390276;19;19918;-55
2022/10/29 09:24:38;;;;;;;;;;;;;;;14.06;100.00;98647.16;7385146;19;20311;-50
2022/10/29 09:27:17;;;;;;;;;;;;;;;14.20;100.00;98645.28;7388370;19;19914;-54
2022/10/29 09:30:06;;;;;;;;;;;;;;;14.20;100.00;98645.28;7387364;19;19925;-59
2022/10/29 09:32:40;;;;;;;;;;;;;;;13.96;100.00;98646.94;7388852;19;19918;-53
2022/10/29 09:35:17;;;;;;;;;;;;;;;14.20;100.00;98650.59;7382375;19;19925;-60
2022/10/29 09:37:55;;;;;;;;;;;;;;;14.37;100.00;98642.31;7387282;19;19918;-55
2022/10/29 09:40:36;;;;;;;;;;;;;;;14.67;100.00;98636.75;7387739;19;19922;-55
2022/10/29 09:43:12;;;;;;;;;;;;;;;14.44;100.00;98645.44;7388772;19;19925;-54
2022/10/29 09:45:52;;;;;;;;;;;;;;;14.63;100.00;98641.41;7383465;19;19915;-58
2022/10/29 09:48:32;;;;;;;;;;;;;;;14.87;100.00;98641.47;7385691;19;19915;-54
2022/10/29 09:51:13;;;;;;;;;;;;;;;14.88;100.00;98642.34;7385567;19;20036;-56
2022/10/29 09:53:49;;;;;;;;;;;;;;;14.94;100.00;98636.63;7387912;19;19932;-56
2022/10/29 09:56:23;;;;;;;;;;;;;;;15.04;100.00;98627.91;7387274;19;20337;-59
2022/10/29 09:58:58;;;;;;;;;;;;;;;14.66;100.00;98638.53;7383862;19;19982;-49
2022/10/29 10:01:31;;;;;;;;;;;;;;;14.45;100.00;98633.91;7387326;19;19911;-48
2022/10/29 10:04:07;;;;;;;;;;;;;;;14.44;100.00;98625.09;7383980;19;19929;-53
2022/10/29 10:07:00;;;;;;;;;;;;;;;14.51;100.00;98625.56;7386486;19;19922;-50
2022/10/29 10:09:55;;;;;;;;;;;;;;;14.76;100.00;98622.84;7384002;19;19984;-52
2022/10/29 10:12:28;;;;;;;;;;;;;;;14.65;100.00;98607.75;7388773;19;19918;-49
2022/10/29 10:15:09;;;;;;;;;;;;;;;14.75;100.00;98614.09;7382083;19;19918;-52
2022/10/29 10:17:59;;;;;;;;;;;;;;;14.82;100.00;98603.91;7388535;19;19922;-58
2022/10/29 10:20:33;;;;;;;;;;;;;;;15.21;100.00;98608.13;7386450;19;20292;-51
2022/10/29 10:23:07;;;;;;;;;;;;;;;15.01;100.00;98601.63;7385666;19;19927;-49
2022/10/29 10:25:44;;;;;;;;;;;;;;;15.17;100.00;98596.91;7382696;19;19919;-58
2022/10/29 10:28:24;;;;;;;;;;;;;;;15.11;100.00;98596.50;7386187;19;20364;-50
2022/10/29 10:31:11;;;;;;;;;;;;;;;15.09;100.00;98593.16;7378834;19;19959;-49
2022/10/29 10:33:50;;;;;;;;;;;;;;;15.16;100.00;98591.75;7386001;19;20410;-54
2022/10/29 10:36:24;;;;;;;;;;;;;;;15.11;100.00;98593.88;7378749;19;19924;-51
2022/10/29 10:38:58;;;;;;;;;;;;;;;15.16;100.00;98597.03;7382799;19;19930;-55
2022/10/29 10:41:35;;;;;;;;;;;;;;;14.87;100.00;98599.13;7383053;19;19926;-60
2022/10/29 10:44:09;;;;;;;;;;;;;;;14.78;100.00;98605.06;7384898;19;20391;-57
2022/10/29 10:46:44;;;;;;;;;;;;;;;15.13;100.00;98597.25;7386862;19;19928;-49
2022/10/29 10:49:19;;;;;;;;;;;;;;;14.87;100.00;98588.53;7383585;19;20176;-55
2022/10/29 10:51:54;;;;;;;;;;;;;;;14.95;100.00;98594.09;7383405;19;19922;-52
2022/10/29 10:54:32;;;;;;;;;;;;;;;14.76;100.00;98597.25;7379224;19;20316;-59
2022/10/29 10:57:08;;;;;;;;;;;;;;;14.59;100.00;98594.91;7387236;19;19935;-58
2022/10/29 10:59:48;;;;;;;;;;;;;;;14.83;100.00;98601.16;7378941;19;20021;-59
2022/10/29 11:02:26;;;;;;;;;;;;;;;14.63;100.00;98604.34;7387213;19;20335;-56
2022/10/29 11:05:02;;;;;;;;;;;;;;;14.41;100.00;98617.38;7384870;19;19952;-51
2022/10/29 11:07:40;;;;;;;;;;;;;;;14.60;100.00;98623.09;7386020;19;19922;-54
2022/10/29 11:10:17;;;;;;;;;;;;;;;14.62;100.00;98613.25;7382093;19;19915;-56
2022/10/29 11:12:55;;;;;;;;;;;;;;;14.68;100.00;98598.72;7386215;19;20478;-49
2022/10/29 11:15:35;;;;;;;;;;;;;;;14.73;100.00;98610.69;7386107;19;19923;-52
2022/10/29 11:18:11;;;;;;;;;;;;;;;14.59;100.00;98600.22;7382231;19;20340;-56
2022/10/29 11:20:45;;;;;;;;;;;;;;;14.61;100.00;98602.75;7384532;19;19914;-53
2022/10/29 11:23:32;;;;;;;;;;;;;;;14.69;100.00;98613.66;7380952;19;19919;-52
2022/10/29 11:26:09;;;;;;;;;;;;;;;14.92;100.00;98593.50;7388238;19;19986;-54
2022/10/29 11:28:48;;;;;;;;;;;;;;;15.09;100.00;98598.44;7388976;19;19907;-58
2022/10/29 11:31:26;;;;;;;;;;;;;;;15.03;100.00;98604.16;7392714;19;20231;-53
2022/10/29 11:34:02;;;;;;;;;;;;;;;15.12;100.00;98595.53;7388549;19;19990;-50
2022/10/29 11:36:37;;;;;;;;;;;;;;;15.24;100.00;98592.03;7390381;19;19915;-55
2022/10/29 11:39:14;;;;;;;;;;;;;;;15.18;100.00;98590.66;7394011;19;19931;-53
2022/10/29 11:41:50;;;;;;;;;;;;;;;15.18;100.00;98598.63;7392259;19;19914;-55
2022/10/29 11:44:25;;;;;;;;;;;;;;;15.28;100.00;98596.97;7392937;19;20315;-54
2022/10/29 11:47:07;;;;;;;;;;;;;;;15.17;100.00;98580.19;7389259;19;19923;-54
2022/10/29 11:49:54;;;;;;;;;;;;;;;15.34;100.00;98587.72;7387300;19;19944;-53
2022/10/29 11:52:33;;;;;;;;;;;;;;;15.27;100.00;98591.81;7389681;19;19932;-51
2022/10/29 11:55:13;;;;;;;;;;;;;;;15.41;100.00;98588.97;7392115;19;19929;-54
2022/10/29 11:57:48;;;;;;;;;;;;;;;15.34;100.00;98579.78;7392603;19;19907;-51
2022/10/29 12:00:26;;;;;;;;;;;;;;;15.35;100.00;98571.72;7391220;19;19914;-54
2022/10/29 12:03:14;;;;;;;;;;;;;;;15.41;100.00;98571.31;7386384;19;19991;-51
2022/10/29 12:05:49;;;;;;;;;;;;;;;15.76;100.00;98563.38;7389463;19;19918;-55
2022/10/29 12:08:29;;;;;;;;;;;;;;;15.52;100.00;98560.75;7390148;19;20933;-54
2022/10/29 12:11:09;;;;;;;;;;;;;;;15.75;100.00;98559.88;7389751;19;20259;-54
2022/10/29 12:13:53;;;;;;;;;;;;;;;15.57;100.00;98568.38;7389936;19;19923;-53
2022/10/29 12:16:35;;;;;;;;;;;;;;;15.71;100.00;98576.13;7391840;19;19911;-53
2022/10/29 12:19:11;;;;;;;;;;;;;;;15.76;100.00;98564.19;7392005;19;19922;-54
2022/10/29 12:21:54;;;;;;;;;;;;;;;15.76;100.00;98564.19;7389488;19;19919;-51
2022/10/29 12:24:51;;;;;;;;;;;;;;;15.65;100.00;98561.50;7389084;19;19919;-55
2022/10/29 12:27:27;;;;;;;;;;;;;;;15.59;100.00;98569.09;7383714;19;19915;-54
2022/10/29 12:30:04;;;;;;;;;;;;;;;15.74;100.00;98567.94;7390629;19;19914;-54
2022/10/29 12:32:43;;;;;;;;;;;;;;;15.74;100.00;98565.28;7389381;19;19924;-54
2022/10/29 12:35:20;;;;;;;;;;;;;;;15.96;100.00;98568.00;7388315;19;19986;-55
2022/10/29 12:38:00;;;;;;;;;;;;;;;15.88;100.00;98565.09;7387704;19;19948;-52
2022/10/29 12:40:35;;;;;;;;;;;;;;;15.84;100.00;98571.59;7386586;19;20461;-54
2022/10/29 12:43:09;;;;;;;;;;;;;;;15.98;100.00;98560.78;7389512;19;19922;-51
2022/10/29 12:45:49;;;;;;;;;;;;;;;15.86;100.00;98561.72;7384069;19;19928;-53
2022/10/29 12:48:32;;;;;;;;;;;;;;;15.73;100.00;98556.50;7389931;19;19918;-51
2022/10/29 12:51:09;;;;;;;;;;;;;;;15.64;100.00;98561.66;7380922;19;19921;-54
2022/10/29 12:53:45;;;;;;;;;;;;;;;15.67;100.00;98562.25;7389970;19;19918;-54
2022/10/29 12:56:19;;;;;;;;;;;;;;;15.90;100.00;98560.53;7383184;19;19982;-49
2022/10/29 12:58:55;;;;;;;;;;;;;;;15.95;100.00;98563.66;7383224;19;19926;-57
2022/10/29 13:01:43;;;;;;;;;;;;;;;15.85;100.00;98562.66;7389650;19;19947;-55
2022/10/29 13:04:31;;;;;;;;;;;;;;;15.99;100.00;98559.81;7389948;19;19919;-52
2022/10/29 13:07:05;;;;;;;;;;;;;;;15.99;100.00;98565.97;7381291;19;19944;-52
2022/10/29 13:09:39;;;;;;;;;;;;;;;15.91;100.00;98559.56;7390158;19;20323;-52
2022/10/29 13:12:15;;;;;;;;;;;;;;;15.78;100.00;98559.66;7386875;19;19925;-55
2022/10/29 13:14:49;;;;;;;;;;;;;;;15.94;100.00;98552.19;7386604;19;19939;-55
2022/10/29 13:17:29;;;;;;;;;;;;;;;15.91;100.00;98546.28;7389010;19;19955;-53
2022/10/29 13:20:06;;;;;;;;;;;;;;;15.76;100.00;98558.91;7384413;19;19943;-54
2022/10/29 13:22:55;;;;;;;;;;;;;;;15.88;100.00;98551.81;7384946;19;19929;-55
2022/10/29 13:25:47;;;;;;;;;;;;;;;15.88;100.00;98538.56;7377030;19;19918;-53
2022/10/29 13:28:37;;;;;;;;;;;;;;;15.84;100.00;98545.94;7378597;19;19970;-51